Current | Forecast
Updated: 9:30 PM EET on December 12, 2017
Observed at Tulcea, Romania
Temperature 10°C
Humidity 66%
Dew Point 4°C
Wind SW at 7 km/h
Pressure 1015 hPa (Steady)
Conditions Clear
Visibility 10.0 kilometers
UV N/A
Clouds
Yesterday's Maximum 9°C
Yesterday's Minimum 0°C approx.
Yesterday's Heating Degree Days 25 approx.
Sunrise7:34 AM EET
Sunset4:22 PM EET
Moon Rise1:24 AM EET
Moon Set1:36 PM EET
Moon PhaseMoon Phase
Waning Crescent
Raw METARMETAR LRTC 121930Z AUTO 23004KT 210V280 9999 NCD 10/04 Q1015


Monday
. High: 66° F.
Tuesday
. High: 69° F.
Wednesday
. High: 69° F.
Thursday
. High: 66° F.
Friday
. High: 68° F.
Saturday
. High: 69° F.
Sunday
. High: 69° F.
Monday
. High: 69° F.

Units: English | Metric

Find the Weather for any City, State or Zipcode, or Country:

U.S. State List | Severe Weather | Tropical Storms | Ski Conditions
United States | Canada | Central America | South America | Asia | Europe | Australia | Africa | Islands

Weather Underground

© Copyright 2017
The Weather Company, LLC